This is the latest recevied weather packets stored in our database for station/object KC1TWD. If no packets are shown the sender has not sent any weather packets the latest 1 day(s).
| Time | Temp. | Humidity | Pressure | Rain* | Wind** | Luminosity | Snow |
|---|---|---|---|---|---|---|---|
| 1778059850 | 12.78° C | 91% | 1008.6 hPa | 0 mm | - | - | - |
| 1778059548 | 12.78° C | 90% | 1008.6 hPa | 0 mm | - | - | - |
| 1778059244 | 12.78° C | 90% | 1008.5 hPa | 0 mm | - | - | - |
| 1778058943 | 12.78° C | 90% | 1008.7 hPa | 0 mm | - | - | - |
| 1778058337 | 12.78° C | 89% | 1008.5 hPa | 0 mm | - | - | - |
| 1778057427 | 12.78° C | 89% | 1008.7 hPa | 0 mm | - | - | - |
| 1778057124 | 12.78° C | 90% | 1008.6 hPa | 0 mm | - | - | - |
| 1778056820 | 13.33° C | 90% | 1008.6 hPa | 0 mm | - | - | - |
| 1778056215 | 13.33° C | 90% | 1008.4 hPa | 0 mm | - | - | - |
| 1778055607 | 13.33° C | 89% | 1008.6 hPa | 0 mm | - | - | - |
| 1778054397 | 14.44° C | 84% | 1008.7 hPa | 0 mm | - | - | - |
| 1778053791 | 14.44° C | 83% | 1008.6 hPa | 0 mm | - | - | - |
| 1778053488 | 15° C | 82% | 1008.8 hPa | 0 mm | - | - | - |
| 1778052883 | 15° C | 82% | 1008.6 hPa | 0 mm | - | - | - |
| 1778051673 | 15.56° C | 79% | 1008.5 hPa | 0 mm | - | - | - |
| 1778051370 | 15.56° C | 78% | 1008.7 hPa | 0 mm | - | - | - |
| 1778050764 | 15.56° C | 78% | 1008.5 hPa | 0 mm | - | - | - |
| 1778050158 | 15.56° C | 77% | 1008.5 hPa | 0 mm | - | - | - |
| 1778049551 | 15.56° C | 79% | 1008.4 hPa | 0 mm | - | - | - |
| 1778048037 | 16.11° C | 75% | 1008.4 hPa | 0 mm | - | - | - |
| 1778047735 | 16.67° C | 75% | 1008.2 hPa | 0 mm | - | - | - |
| 1778047129 | 16.67° C | 74% | 1008.1 hPa | 0 mm | - | - | - |
| 1778046826 | 16.11° C | 74% | 1008.2 hPa | 0 mm | - | - | - |
| 1778046523 | 16.11° C | 76% | 1008.2 hPa | 0 mm | - | - | - |
| 1778046220 | 16.11° C | 78% | 1008.1 hPa | 0 mm | - | - | - |
* Rain latest hour (hover to see other rain measurements)
** Current wind speed in m/s (hover to see current wind gust speed)